Time;durP1;ratioP1;P1;durP2;ratioP2;P2;SDS_P1;SDS_P2;PMS_P1;PMS_P2;Temp;Humidity;BMP_temperature;BMP_pressure;BME280_temperature;BME280_humidity;BME280_pressure;Samples;Min_cycle;Max_cycle;Signal;HPM_P1;HPM_P2
2023/11/10 00:00:45;;;;;;;3.27;1.10;;;8.10;99.90;;;8.37;100.00;96580.00;5031151;28;20965;-79
2023/11/10 00:03:15;;;;;;;1.43;0.97;;;8.00;99.90;;;8.38;100.00;96575.59;5028324;28;20545;-79
2023/11/10 00:05:45;;;;;;;2.33;0.90;;;8.00;99.90;;;8.36;100.00;96572.41;5029080;28;20575;-79
2023/11/10 00:08:16;;;;;;;2.50;0.90;;;7.90;99.90;;;8.38;100.00;96575.59;5029288;28;20557;-79
2023/11/10 00:10:47;;;;;;;3.73;1.13;;;8.00;99.90;;;8.37;100.00;96579.19;5029486;28;20474;-79
2023/11/10 00:13:18;;;;;;;1.60;1.00;;;7.80;99.90;;;8.38;100.00;96589.41;5028040;28;20928;-79
2023/11/10 00:15:51;;;;;;;2.70;1.10;;;7.90;99.90;;;8.36;100.00;96598.47;5029556;28;20585;-79
2023/11/10 00:18:21;;;;;;;6.63;1.30;;;7.90;99.90;;;8.39;100.00;96582.41;5029341;28;20656;-79
2023/11/10 00:20:52;;;;;;;5.13;0.93;;;7.80;99.90;;;8.35;100.00;96576.81;5030087;28;20528;-79
2023/11/10 00:23:21;;;;;;;5.33;1.30;;;7.80;99.90;;;8.38;100.00;96579.00;5029277;28;20470;-78
2023/11/10 00:25:52;;;;;;;3.50;1.10;;;7.80;99.90;;;8.40;100.00;96584.78;5029289;28;20493;-79
2023/11/10 00:28:22;;;;;;;3.63;1.10;;;7.80;99.90;;;8.41;100.00;96578.56;5029203;28;20553;-79
2023/11/10 00:30:54;;;;;;;1.47;1.37;;;7.80;99.90;;;8.41;100.00;96568.16;5031147;28;20599;-79
2023/11/10 00:33:24;;;;;;;2.20;0.97;;;7.80;99.90;;;8.41;100.00;96568.16;5029957;28;20485;-78
2023/11/10 00:35:54;;;;;;;3.43;0.90;;;7.70;99.90;;;8.41;100.00;96557.75;5029951;28;20462;-79
2023/11/10 00:38:23;;;;;;;1.13;0.90;;;7.80;99.90;;;8.41;100.00;96547.31;5029569;28;20466;-80
2023/11/10 00:40:54;;;;;;;6.23;1.03;;;7.80;99.90;;;8.40;100.00;96556.13;5029791;28;20474;-79
2023/11/10 00:43:22;;;;;;;3.53;1.03;;;7.80;99.90;;;8.39;100.00;96545.94;5032524;28;20482;-78
2023/11/10 00:45:55;;;;;;;1.40;0.97;;;7.80;99.90;;;8.38;100.00;96545.16;5030456;28;20582;-79
2023/11/10 00:48:26;;;;;;;2.67;1.40;;;7.80;99.90;;;8.40;100.00;96529.31;5030178;28;20509;-79
2023/11/10 00:50:55;;;;;;;1.47;0.93;;;7.70;99.90;;;8.39;100.00;96530.31;5028001;28;20554;-79
2023/11/10 00:53:26;;;;;;;4.53;1.13;;;7.70;99.90;;;8.43;100.00;96534.91;5029652;28;20458;-79
2023/11/10 00:55:54;;;;;;;3.93;1.23;;;7.70;99.90;;;8.45;100.00;96535.47;5031642;28;20464;-79
2023/11/10 00:58:24;;;;;;;1.63;1.03;;;7.70;99.90;;;8.40;100.00;96532.69;5025859;28;20541;-79
2023/11/10 01:00:54;;;;;;;5.60;1.07;;;7.80;99.90;;;8.38;100.00;96531.31;5029472;28;20509;-78
2023/11/10 01:03:24;;;;;;;5.27;1.47;;;7.80;99.90;;;8.41;100.00;96539.50;5029407;28;20458;-79
2023/11/10 01:05:54;;;;;;;3.60;1.17;;;7.70;99.90;;;8.38;100.00;96542.53;5026860;28;20497;-79
2023/11/10 01:08:24;;;;;;;4.23;1.13;;;7.70;99.90;;;8.40;100.00;96535.31;5026204;28;20927;-78
2023/11/10 01:10:54;;;;;;;1.00;0.90;;;7.70;99.90;;;8.41;100.00;96523.88;5029004;28;20464;-79
2023/11/10 01:13:25;;;;;;;1.40;1.10;;;7.80;99.90;;;8.41;100.00;96528.28;5028533;28;20455;-78
2023/11/10 01:15:56;;;;;;;3.23;1.30;;;7.90;99.90;;;8.39;100.00;96531.13;5028158;28;20842;-78
2023/11/10 01:18:26;;;;;;;3.23;1.40;;;7.90;99.90;;;8.37;100.00;96517.50;5028593;28;20462;-78
2023/11/10 01:20:57;;;;;;;4.60;1.30;;;8.00;99.90;;;8.39;100.00;96512.09;5027510;28;20459;-79
2023/11/10 01:23:27;;;;;;;21.00;1.53;;;7.90;99.90;;;8.38;100.00;96511.28;5029274;28;20453;-79
2023/11/10 01:25:57;;;;;;;9.27;1.60;;;7.90;99.90;;;8.43;100.00;96515.88;5030144;28;20525;-79
2023/11/10 01:28:26;;;;;;;5.67;1.20;;;7.90;99.90;;;8.41;100.00;96508.25;5028930;28;20501;-79
2023/11/10 01:30:58;;;;;;;10.60;1.30;;;7.90;99.90;;;8.42;100.00;96507.25;5029123;28;20464;-79
2023/11/10 01:33:28;;;;;;;3.40;1.20;;;7.90;99.90;;;8.39;100.00;96509.47;5031336;28;20589;-79
2023/11/10 01:35:58;;;;;;;2.00;1.20;;;7.90;99.90;;;8.42;100.00;96494.25;5030128;28;20453;-79
2023/11/10 01:38:27;;;;;;;3.53;1.37;;;7.90;99.90;;;8.40;100.00;96498.84;5025526;28;20468;-78
2023/11/10 01:40:57;;;;;;;1.73;1.00;;;7.90;99.90;;;8.41;100.00;96482.22;5029075;28;20462;-78
2023/11/10 01:43:29;;;;;;;2.53;1.00;;;7.90;99.90;;;8.43;100.00;96482.00;5026371;28;20564;-79
2023/11/10 01:46:01;;;;;;;2.00;1.10;;;7.90;99.90;;;8.40;100.00;96488.41;5026548;28;20556;-78
2023/11/10 01:48:31;;;;;;;2.20;1.00;;;7.90;99.90;;;8.40;100.00;96485.81;5029248;28;20514;-79
2023/11/10 01:51:02;;;;;;;1.83;1.23;;;7.90;99.90;;;8.44;100.00;96488.78;5024535;28;20458;-79
2023/11/10 01:53:32;;;;;;;3.63;1.50;;;7.90;99.90;;;8.44;100.00;96491.41;5029366;28;20468;-79
2023/11/10 01:56:04;;;;;;;1.67;1.37;;;7.80;99.90;;;8.45;100.00;96486.00;5030058;28;20559;-79
2023/11/10 01:58:35;;;;;;;2.20;1.27;;;7.80;99.90;;;8.46;100.00;96495.41;5027853;28;21041;-79
2023/11/10 02:01:10;;;;;;;4.90;1.47;;;7.90;99.90;;;8.41;100.00;96487.41;5028187;28;20461;-79
2023/11/10 02:03:40;;;;;;;2.00;1.17;;;8.00;99.90;;;8.41;100.00;96489.22;5027705;28;20461;-79
2023/11/10 02:06:10;;;;;;;1.00;0.90;;;7.90;99.90;;;8.43;100.00;96488.03;5027980;28;21081;-79
2023/11/10 02:08:41;;;;;;;6.77;1.67;;;7.90;99.90;;;8.43;100.00;96480.22;5027747;28;20466;-78
2023/11/10 02:11:11;;;;;;;1.30;1.00;;;7.90;99.90;;;8.46;100.00;96485.00;5028696;28;21087;-79
2023/11/10 02:13:41;;;;;;;1.80;1.13;;;7.90;99.90;;;8.46;100.00;96478.97;5028033;28;20486;-78
2023/11/10 02:16:11;;;;;;;3.23;1.03;;;7.90;99.90;;;8.47;100.00;96478.75;5028726;28;21129;-78
2023/11/10 02:18:42;;;;;;;4.00;0.90;;;7.90;99.90;;;8.50;100.00;96475.72;5025907;28;20470;-78
2023/11/10 02:21:13;;;;;;;2.53;0.97;;;7.90;99.90;;;8.48;100.00;96477.75;5028597;28;20897;-78
2023/11/10 02:23:46;;;;;;;1.30;1.00;;;7.90;99.90;;;8.50;100.00;96475.72;5028049;28;20504;-79
2023/11/10 02:26:18;;;;;;;1.80;1.10;;;7.90;99.90;;;8.51;100.00;96482.53;5028391;28;20884;-79
2023/11/10 02:28:48;;;;;;;4.53;1.83;;;8.00;99.90;;;8.50;100.00;96488.75;5030518;28;20475;-78
2023/11/10 02:31:18;;;;;;;3.80;1.07;;;8.00;99.90;;;8.48;100.00;96477.75;5026296;28;20476;-78
2023/11/10 02:33:47;;;;;;;4.70;1.70;;;7.90;99.90;;;8.49;100.00;96484.56;5026802;28;20463;-79
2023/11/10 02:36:17;;;;;;;4.50;1.30;;;7.90;99.90;;;8.48;100.00;96482.16;5026815;28;20464;-79
2023/11/10 02:38:47;;;;;;;2.10;1.20;;;7.90;99.90;;;8.49;100.00;96484.56;5027912;28;20458;-80
2023/11/10 02:41:19;;;;;;;3.67;1.20;;;7.90;99.90;;;8.46;100.00;96490.19;5026793;28;20465;-79
2023/11/10 02:43:50;;;;;;;3.60;1.10;;;7.90;99.90;;;8.48;100.00;96493.38;5027927;28;20468;-79
2023/11/10 02:46:19;;;;;;;7.53;1.17;;;7.90;99.90;;;8.49;100.00;96489.78;5026171;28;20567;-79
2023/11/10 02:48:49;;;;;;;5.77;1.07;;;8.00;99.90;;;8.48;100.00;96489.97;5025804;28;20472;-80
2023/11/10 02:51:19;;;;;;;2.70;0.90;;;8.00;99.90;;;8.51;100.00;96492.16;5025930;28;20450;-78
2023/11/10 02:53:49;;;;;;;5.67;1.20;;;8.00;99.90;;;8.49;100.00;96491.56;5027958;28;20461;-79
2023/11/10 02:56:21;;;;;;;5.80;1.10;;;8.00;99.90;;;8.47;100.00;96490.97;5028671;28;20476;-79
2023/11/10 02:58:51;;;;;;;2.87;0.80;;;8.10;99.90;;;8.47;100.00;96491.78;5024139;28;20967;-79
2023/11/10 03:01:22;;;;;;;2.03;1.10;;;8.00;99.90;;;8.45;100.00;96498.22;5031006;28;20469;-79
2023/11/10 03:03:52;;;;;;;3.30;1.40;;;8.00;99.90;;;8.45;100.00;96503.44;5029124;28;20460;-80
2023/11/10 03:06:23;;;;;;;2.80;0.90;;;7.90;99.90;;;8.41;100.00;96504.84;5028149;28;20498;-80
2023/11/10 03:08:54;;;;;;;2.20;1.10;;;7.90;99.90;;;8.44;100.00;96496.63;5025959;28;20841;-79
2023/11/10 03:11:24;;;;;;;2.00;0.90;;;7.90;99.90;;;8.40;100.00;96496.25;5026896;28;20473;-81
2023/11/10 03:13:54;;;;;;;1.43;1.10;;;7.90;99.90;;;8.38;100.00;96487.84;5027297;28;20466;-79
2023/11/10 03:16:24;;;;;;;1.30;0.83;;;7.90;99.90;;;8.37;100.00;96496.66;5028919;28;20528;-79
2023/11/10 03:18:55;;;;;;;1.60;1.03;;;7.80;99.90;;;8.34;100.00;96497.09;5027302;28;20462;-79
2023/11/10 03:21:26;;;;;;;2.90;1.37;;;7.80;99.90;;;8.33;100.00;96487.66;5028341;28;20838;-79
2023/11/10 03:23:56;;;;;;;2.10;1.10;;;7.70;99.90;;;8.33;100.00;96500.69;5026474;28;20454;-79
2023/11/10 03:26:28;;;;;;;1.37;0.77;;;7.80;99.90;;;8.27;100.00;96493.69;5026135;28;20517;-79
2023/11/10 03:28:58;;;;;;;5.33;1.00;;;7.80;99.90;;;8.27;100.00;96493.69;5024573;28;20453;-79
2023/11/10 03:31:30;;;;;;;1.17;0.90;;;7.90;99.90;;;8.19;100.00;96493.94;5025159;28;20459;-80
2023/11/10 03:34:00;;;;;;;1.13;0.90;;;7.70;99.90;;;8.17;100.00;96489.97;5027695;28;20449;-79
2023/11/10 03:36:29;;;;;;;2.13;1.20;;;7.80;99.90;;;8.22;100.00;96493.53;5025755;28;20466;-79
2023/11/10 03:38:59;;;;;;;1.00;0.80;;;7.70;99.90;;;8.21;100.00;96497.16;5025592;28;20541;-79
2023/11/10 03:41:31;;;;;;;3.03;1.10;;;7.60;99.90;;;8.21;100.00;96485.94;5025938;28;20565;-79
2023/11/10 03:44:01;;;;;;;1.47;0.87;;;7.70;99.90;;;8.16;100.00;96491.75;5026736;28;20830;-79
2023/11/10 03:46:30;;;;;;;2.30;1.00;;;7.60;99.90;;;8.20;100.00;96494.75;5029026;28;20520;-79
2023/11/10 03:48:59;;;;;;;0.97;0.80;;;7.50;99.90;;;8.21;100.00;96494.53;5027774;28;20482;-79
2023/11/10 03:51:29;;;;;;;2.10;0.90;;;7.60;99.90;;;8.19;100.00;96487.97;5031467;28;20466;-79
2023/11/10 03:54:00;;;;;;;4.57;0.90;;;7.70;99.90;;;8.15;100.00;96487.59;5030427;28;20488;-79
2023/11/10 03:56:35;;;;;;;3.43;1.07;;;7.80;99.90;;;8.17;100.00;96489.97;5031074;28;20522;-79
2023/11/10 03:59:04;;;;;;;2.93;0.90;;;7.60;99.90;;;8.16;100.00;96494.38;5029220;28;20465;-79
2023/11/10 04:01:34;;;;;;;2.80;1.00;;;7.60;99.90;;;8.14;100.00;96495.59;5028885;28;20993;-79
2023/11/10 04:04:06;;;;;;;2.03;0.90;;;7.60;99.90;;;8.12;100.00;96497.63;5029850;28;21089;-79
2023/11/10 04:06:36;;;;;;;2.30;0.93;;;7.60;99.90;;;8.10;100.00;96496.00;5030241;28;20492;-79
2023/11/10 04:09:11;;;;;;;1.23;0.90;;;7.60;99.90;;;8.11;100.00;96496.81;5029945;28;20831;-79
2023/11/10 04:11:42;;;;;;;0.90;0.80;;;7.60;99.90;;;8.10;100.00;96497.81;5031248;28;21434;-77
2023/11/10 04:14:13;;;;;;;6.00;3.23;;;7.70;99.90;;;8.05;100.00;96500.25;5026909;28;21318;-78
2023/11/10 04:16:42;;;;;;;2.90;1.17;;;7.60;99.90;;;8.08;100.00;96492.84;5029608;28;20540;-79
2023/11/10 04:19:14;;;;;;;4.03;0.80;;;7.50;99.90;;;8.07;100.00;96500.84;5027044;28;20534;-78
2023/11/10 04:21:44;;;;;;;1.83;0.90;;;7.60;99.90;;;8.03;100.00;96495.25;5024746;28;20540;-78
2023/11/10 04:24:14;;;;;;;2.80;1.00;;;7.60;99.90;;;8.01;100.00;96494.69;5031056;28;20461;-78
2023/11/10 04:26:47;;;;;;;3.40;0.90;;;7.50;99.90;;;7.96;100.00;96486.69;5028944;28;20551;-78
2023/11/10 04:29:17;;;;;;;7.67;3.97;;;7.50;99.90;;;7.93;100.00;96488.91;5018478;28;20485;-77
2023/11/10 04:31:47;;;;;;;6.87;1.00;;;7.40;99.90;;;7.91;100.00;96485.72;5025927;28;20494;-78
2023/11/10 04:34:18;;;;;;;1.80;1.10;;;7.30;99.90;;;7.91;100.00;96490.94;5024482;28;20976;-78
2023/11/10 04:36:48;;;;;;;3.10;1.20;;;7.40;99.90;;;7.90;100.00;96486.72;5028397;28;20551;-78
2023/11/10 04:39:18;;;;;;;1.83;1.27;;;7.50;99.90;;;7.79;100.00;96487.38;5026608;28;20515;-78
2023/11/10 04:41:49;;;;;;;4.60;1.60;;;7.40;99.90;;;7.79;100.00;96487.38;5027957;28;20526;-79
2023/11/10 04:44:18;;;;;;;2.40;0.80;;;7.40;99.90;;;7.83;100.00;96491.16;5028549;28;20462;-78
2023/11/10 04:46:49;;;;;;;4.30;2.20;;;7.30;99.90;;;7.80;100.00;96489.78;5026485;28;20845;-79
2023/11/10 04:49:18;;;;;;;2.57;1.23;;;7.30;99.90;;;7.75;100.00;96489.59;5026526;28;20501;-78
2023/11/10 04:51:48;;;;;;;1.27;0.80;;;7.30;99.90;;;7.76;100.00;96493.00;5028101;28;20469;-77
2023/11/10 04:54:18;;;;;;;3.67;1.20;;;7.30;99.90;;;7.81;100.00;96493.19;5029928;28;20585;-77
2023/11/10 04:56:50;;;;;;;2.80;1.13;;;7.20;99.90;;;7.78;100.00;96496.19;5027680;28;20458;-77
2023/11/10 04:59:19;;;;;;;4.00;1.13;;;7.30;99.90;;;7.77;100.00;96499.81;5028254;28;20470;-76
2023/11/10 05:01:49;;;;;;;7.00;1.33;;;7.20;99.90;;;7.77;100.00;96500.59;5028199;28;20864;-76
2023/11/10 05:04:19;;;;;;;2.40;1.20;;;7.20;99.90;;;7.79;100.00;96498.59;5027549;28;20466;-77
2023/11/10 05:06:50;;;;;;;6.50;1.60;;;7.10;99.90;;;7.75;100.00;96497.41;5026565;28;20457;-77
2023/11/10 05:09:22;;;;;;;10.23;1.60;;;7.10;99.90;;;7.65;100.00;96498.84;5026151;28;20461;-77
2023/11/10 05:11:54;;;;;;;7.30;1.43;;;7.10;99.90;;;7.69;100.00;96500.03;5025787;28;20469;-76
2023/11/10 05:14:24;;;;;;;7.30;1.30;;;7.10;99.90;;;7.71;100.00;96503.22;5027680;28;20471;-77
2023/11/10 05:16:54;;;;;;;4.73;1.10;;;7.10;99.90;;;7.74;100.00;96511.41;5028630;28;20574;-77
2023/11/10 05:19:25;;;;;;;4.83;1.27;;;7.10;99.90;;;7.71;100.00;96505.81;5028693;28;20952;-76
2023/11/10 05:21:55;;;;;;;2.03;1.00;;;7.00;99.90;;;7.71;100.00;96511.81;5029097;28;21486;-77
2023/11/10 05:24:25;;;;;;;7.93;1.57;;;7.10;99.90;;;7.72;100.00;96508.22;5025972;28;20446;-77
2023/11/10 05:26:59;;;;;;;6.27;1.30;;;7.10;99.90;;;7.68;100.00;96512.25;5026786;28;20564;-77
2023/11/10 05:29:28;;;;;;;5.80;1.40;;;7.10;99.90;;;7.67;100.00;96512.47;5027778;28;20520;-78
2023/11/10 05:31:59;;;;;;;5.20;1.33;;;7.10;99.90;;;7.71;100.00;96517.03;5024875;28;20481;-78
2023/11/10 05:34:29;;;;;;;1.73;0.93;;;7.10;99.90;;;7.70;100.00;96514.66;5026382;28;20521;-77
2023/11/10 05:36:58;;;;;;;1.63;0.90;;;7.20;99.90;;;7.75;100.00;96509.59;5027682;28;20466;-78
2023/11/10 05:39:30;;;;;;;9.60;5.40;;;7.10;99.90;;;7.76;100.00;96511.22;5024122;28;21004;-76
2023/11/10 05:42:02;;;;;;;2.30;1.17;;;7.20;99.90;;;7.76;100.00;96519.81;5027004;28;21243;-78
2023/11/10 05:44:32;;;;;;;2.90;1.00;;;7.20;99.90;;;7.79;100.00;96521.19;5025425;28;20458;-78
2023/11/10 05:47:03;;;;;;;2.90;1.13;;;7.10;99.90;;;7.80;100.00;96515.00;5024000;28;20469;-79
2023/11/10 05:49:34;;;;;;;3.13;1.13;;;7.10;99.90;;;7.81;100.00;96516.59;5025733;28;20990;-80
2023/11/10 05:52:05;;;;;;;2.53;1.40;;;7.10;99.90;;;7.79;100.00;96521.19;5024464;28;20469;-79
2023/11/10 05:54:35;;;;;;;3.03;1.10;;;7.10;99.90;;;7.74;100.00;96521.03;5023446;28;20862;-79
2023/11/10 05:57:06;;;;;;;55.10;25.30;;;7.10;99.90;;;7.79;100.00;96529.00;5024993;28;20462;-78
2023/11/10 05:59:36;;;;;;;4.83;2.10;;;7.20;99.90;;;7.84;100.00;96529.19;5025520;28;20465;-78
2023/11/10 06:02:05;;;;;;;1.47;1.00;;;7.20;99.90;;;7.79;100.00;96529.00;5027145;28;20457;-78
2023/11/10 06:04:36;;;;;;;1.83;1.00;;;7.20;99.90;;;7.81;100.00;96533.00;5026914;28;20461;-77
2023/11/10 06:07:06;;;;;;;2.10;1.20;;;7.20;99.90;;;7.82;100.00;96539.00;5026163;28;20501;-77
2023/11/10 06:09:37;;;;;;;3.77;1.07;;;7.20;99.90;;;7.79;100.00;96535.00;5027905;28;20565;-77
2023/11/10 06:12:11;;;;;;;2.00;1.10;;;7.10;99.90;;;7.76;100.00;96529.41;5026526;28;20469;-77
2023/11/10 06:14:41;;;;;;;1.57;1.00;;;7.20;99.90;;;7.78;100.00;96536.00;5028328;28;20496;-77
2023/11/10 06:17:11;;;;;;;3.00;1.00;;;7.20;99.90;;;7.80;100.00;96526.22;5026466;28;20521;-76
2023/11/10 06:19:41;;;;;;;1.93;1.57;;;7.20;99.90;;;7.77;100.00;96536.22;5025211;28;20588;-80
2023/11/10 06:22:11;;;;;;;2.10;1.30;;;7.20;99.90;;;7.77;100.00;96537.03;5021223;28;20460;-78
2023/11/10 06:24:40;;;;;;;2.10;0.90;;;7.20;99.90;;;7.81;100.00;96540.78;5025435;28;20206;-78
2023/11/10 06:27:13;;;;;;;2.40;0.90;;;7.10;99.90;;;7.80;100.00;96541.81;5022510;28;20592;-78
2023/11/10 06:29:42;;;;;;;6.73;1.30;;;7.20;99.90;;;7.82;100.00;96550.22;5026652;28;20501;-77
2023/11/10 06:32:12;;;;;;;1.17;1.00;;;7.20;99.90;;;7.83;100.00;96546.59;5020439;28;20871;-79
2023/11/10 06:34:42;;;;;;;4.80;1.30;;;7.20;99.90;;;7.74;100.00;96560.06;5026037;28;20561;-77
2023/11/10 06:37:12;;;;;;;1.73;1.00;;;7.30;99.90;;;7.75;100.00;96556.44;5027162;28;20474;-78
2023/11/10 06:39:42;;;;;;;6.50;1.40;;;7.30;99.90;;;7.76;100.00;96547.63;5024349;28;20477;-77
2023/11/10 06:42:12;;;;;;;3.90;1.10;;;7.20;99.90;;;7.79;100.00;96553.22;5024367;28;20567;-78
2023/11/10 06:44:42;;;;;;;3.30;1.70;;;7.30;99.90;;;7.76;100.00;96547.63;5025905;28;20847;-76
2023/11/10 06:47:11;;;;;;;8.60;1.23;;;7.20;99.90;;;7.75;100.00;96556.44;5024219;28;20465;-81
2023/11/10 06:49:40;;;;;;;3.93;1.27;;;7.30;99.90;;;7.70;100.00;96556.28;5024830;28;20556;-77
2023/11/10 06:52:11;;;;;;;4.83;1.33;;;7.30;99.90;;;7.66;100.00;96566.28;5024474;28;20530;-78
2023/11/10 06:54:40;;;;;;;3.53;1.27;;;7.30;99.90;;;7.68;100.00;96563.47;5026283;28;20499;-77
2023/11/10 06:57:13;;;;;;;2.23;1.40;;;7.20;99.90;;;7.75;100.00;96566.84;5028194;28;20540;-77
2023/11/10 06:59:42;;;;;;;2.40;1.20;;;7.20;99.90;;;7.79;100.00;96571.44;5028380;28;20508;-77
2023/11/10 07:02:13;;;;;;;2.33;1.13;;;7.20;99.90;;;7.78;100.00;96569.03;5026322;28;20470;-77
2023/11/10 07:04:42;;;;;;;2.60;1.20;;;7.20;99.90;;;7.76;100.00;96571.84;5025929;28;20536;-77
2023/11/10 07:07:12;;;;;;;7.27;1.40;;;7.30;99.90;;;7.78;100.00;96569.84;5026386;28;20540;-77
2023/11/10 07:09:43;;;;;;;1.50;1.00;;;7.20;99.90;;;7.79;100.00;96575.84;5027356;28;20500;-77
2023/11/10 07:12:14;;;;;;;2.90;1.50;;;7.20;99.90;;;7.76;100.00;96576.25;5026489;28;20981;-77
2023/11/10 07:14:45;;;;;;;3.40;1.00;;;7.10;99.90;;;7.81;100.00;96577.22;5024428;28;20457;-78
2023/11/10 07:17:15;;;;;;;37.67;20.50;;;7.10;99.90;;;7.83;100.00;96572.63;5021674;28;20473;-77
2023/11/10 07:19:45;;;;;;;3.10;2.03;;;7.20;99.90;;;7.88;100.00;96566.81;5027080;28;20458;-77
2023/11/10 07:22:14;;;;;;;1.10;1.00;;;7.20;99.90;;;7.82;100.00;96567.63;5030758;28;20473;-78
2023/11/10 07:24:44;;;;;;;1.37;1.10;;;7.20;99.90;;;7.77;100.00;96570.06;5029230;28;20472;-77
2023/11/10 07:27:15;;;;;;;2.70;1.17;;;7.30;99.90;;;7.72;100.00;96575.88;5029774;28;20462;-77
2023/11/10 07:29:46;;;;;;;2.13;1.07;;;7.30;99.90;;;7.74;100.00;96583.47;5031878;28;20497;-77
2023/11/10 07:32:18;;;;;;;4.20;1.10;;;7.20;99.90;;;7.79;100.00;96588.84;5022358;28;20556;-78
2023/11/10 07:34:48;;;;;;;1.73;1.10;;;7.20;99.90;;;7.80;100.00;96587.84;5028606;28;20454;-78
2023/11/10 07:37:19;;;;;;;2.63;1.10;;;7.30;99.90;;;7.83;100.00;96593.44;5029355;28;20957;-78
2023/11/10 07:39:49;;;;;;;2.40;1.07;;;7.30;99.90;;;7.84;100.00;96592.44;5028788;28;20465;-78
2023/11/10 07:42:21;;;;;;;5.47;1.10;;;7.30;99.90;;;7.81;100.00;96590.22;5026576;28;20674;-78
2023/11/10 07:44:52;;;;;;;2.27;1.10;;;7.30;99.90;;;7.86;100.00;96592.22;5029022;28;20899;-78
2023/11/10 07:47:22;;;;;;;3.67;1.20;;;7.30;99.90;;;7.88;100.00;96591.00;5029201;28;20458;-78
2023/11/10 07:49:53;;;;;;;2.30;1.20;;;7.40;99.90;;;7.92;100.00;96604.41;5030996;28;20599;-78
2023/11/10 07:52:24;;;;;;;2.90;1.30;;;7.40;99.90;;;7.91;100.00;96601.00;5024694;28;21129;-78
2023/11/10 07:54:53;;;;;;;1.40;1.00;;;7.30;99.90;;;7.91;100.00;96600.22;5029553;28;21252;-78
2023/11/10 07:57:29;;;;;;;16.70;1.60;;;7.30;99.90;;;7.97;100.00;96604.59;5026799;28;20462;-78
2023/11/10 08:00:00;;;;;;;7.20;1.47;;;7.50;99.90;;;7.99;100.00;96597.38;5029575;28;20975;-78
2023/11/10 08:02:29;;;;;;;2.27;1.10;;;7.50;99.90;;;7.96;100.00;96593.38;5026133;28;20469;-78
2023/11/10 08:05:00;;;;;;;3.47;1.30;;;7.40;99.90;;;7.93;100.00;96590.41;5025701;28;20849;-77
2023/11/10 08:07:30;;;;;;;9.10;1.73;;;7.50;99.90;;;7.97;100.00;96596.78;5025662;28;20562;-76
2023/11/10 08:10:02;;;;;;;5.10;3.10;;;7.40;99.90;;;7.99;100.00;96607.78;5026422;28;20498;-77
2023/11/10 08:12:37;;;;;;;4.33;1.20;;;7.40;99.90;;;7.99;100.00;96613.00;5025483;28;20548;-77
2023/11/10 08:15:09;;;;;;;4.23;1.50;;;7.40;99.90;;;8.02;100.00;96613.38;5027377;28;20594;-77
2023/11/10 08:17:38;;;;;;;2.20;1.30;;;7.40;99.90;;;7.98;100.00;96607.00;5030685;28;20585;-77
2023/11/10 08:20:11;;;;;;;7.63;1.50;;;7.40;99.90;;;7.98;100.00;96612.19;5027978;28;20465;-77
2023/11/10 08:22:41;;;;;;;1.87;1.20;;;7.40;99.90;;;7.98;100.00;96616.63;5025847;28;20471;-78
2023/11/10 08:25:11;;;;;;;5.33;1.20;;;7.50;99.90;;;7.92;100.00;96607.00;5029006;28;21051;-78
2023/11/10 08:27:43;;;;;;;4.93;1.17;;;7.50;99.90;;;7.95;100.00;96611.81;5029334;28;20474;-77
2023/11/10 08:30:16;;;;;;;1.40;1.20;;;7.60;99.90;;;7.99;100.00;96613.00;5026125;28;20481;-78
2023/11/10 08:32:47;;;;;;;44.83;20.37;;;7.50;99.90;;;7.93;100.00;96617.22;5030360;28;20469;-78
2023/11/10 08:35:18;;;;;;;3.63;1.20;;;7.40;99.90;;;8.03;100.00;96603.78;5030493;28;20458;-79
2023/11/10 08:37:48;;;;;;;1.30;0.97;;;7.50;99.90;;;8.09;100.00;96613.34;5029714;28;20461;-78
2023/11/10 08:40:18;;;;;;;2.20;1.00;;;7.50;99.90;;;8.12;100.00;96612.97;5031862;28;20466;-78
2023/11/10 08:42:50;;;;;;;9.83;1.07;;;7.60;99.90;;;8.04;100.00;96615.78;5029644;28;20524;-78
2023/11/10 08:45:22;;;;;;;4.20;0.93;;;7.50;99.90;;;8.05;100.00;96617.41;5031642;28;20560;-78
2023/11/10 08:47:52;;;;;;;3.77;1.40;;;7.60;99.90;;;8.06;100.00;96630.19;5030233;28;20483;-78
2023/11/10 08:50:24;;;;;;;1.90;1.07;;;7.60;99.90;;;8.05;100.00;96617.41;5031321;28;20497;-78
2023/11/10 08:52:55;;;;;;;2.20;1.10;;;7.50;99.90;;;8.05;100.00;96620.78;5033740;28;20879;-78
2023/11/10 08:55:25;;;;;;;3.47;1.30;;;7.50;99.90;;;8.10;100.00;96613.16;5030034;28;20527;-78
2023/11/10 08:57:58;;;;;;;5.67;1.00;;;7.60;99.90;;;8.14;100.00;96621.34;5033442;28;20459;-78
2023/11/10 09:00:28;;;;;;;3.63;1.10;;;7.60;99.90;;;8.23;100.00;96616.69;5026946;28;20479;-78
2023/11/10 09:02:57;;;;;;;5.50;1.30;;;7.60;99.90;;;8.22;100.00;96615.94;5026643;28;20464;-78
2023/11/10 09:05:28;;;;;;;1.80;1.00;;;7.60;99.90;;;8.25;100.00;96614.69;5025894;28;20466;-76
2023/11/10 09:07:57;;;;;;;11.47;2.93;;;7.70;99.90;;;8.29;100.00;96619.31;5027334;28;20523;-78
2023/11/10 09:10:27;;;;;;;2.60;1.23;;;7.70;99.90;;;8.31;100.00;96621.72;5024259;28;20501;-79
2023/11/10 09:12:58;;;;;;;1.83;1.00;;;7.80;99.90;;;8.33;100.00;96620.47;5024053;28;20474;-78
2023/11/10 09:15:29;;;;;;;4.23;1.17;;;7.80;99.90;;;8.37;100.00;96621.66;5025090;28;20462;-78
2023/11/10 09:17:59;;;;;;;3.40;1.03;;;7.80;99.90;;;8.39;100.00;96626.69;5026728;28;20465;-78
2023/11/10 09:20:29;;;;;;;4.43;1.67;;;7.80;99.90;;;8.37;100.00;96626.06;5027572;28;20469;-78
2023/11/10 09:23:00;;;;;;;3.73;1.20;;;7.80;99.90;;;8.24;100.00;96632.13;5029587;28;20469;-78
2023/11/10 09:25:31;;;;;;;0.80;0.80;;;7.80;99.90;;;8.30;100.00;96631.31;5025653;28;20465;-78
2023/11/10 09:28:03;;;;;;;3.53;1.00;;;7.90;99.90;;;8.33;100.00;96633.50;5028475;28;20465;-78
2023/11/10 09:30:34;;;;;;;3.83;1.13;;;7.90;99.90;;;8.30;100.00;96628.72;5024940;28;20905;-78
2023/11/10 09:33:04;;;;;;;2.90;1.23;;;7.90;99.90;;;8.33;100.00;96635.34;5028451;28;20470;-78
2023/11/10 09:35:35;;;;;;;8.40;1.77;;;7.90;99.90;;;8.27;100.00;96643.94;5023726;28;20829;-77
2023/11/10 09:38:06;;;;;;;4.30;1.20;;;7.90;99.90;;;8.21;100.00;96636.94;5026964;28;20462;-78
2023/11/10 09:40:35;;;;;;;1.97;1.17;;;7.80;99.90;;;8.26;100.00;96635.31;5029616;28;20488;-78
2023/11/10 09:43:07;;;;;;;4.17;1.07;;;7.80;99.90;;;8.27;100.00;96649.94;5029410;28;20520;-78
2023/11/10 09:45:37;;;;;;;2.40;1.30;;;7.80;99.90;;;8.25;100.00;96643.34;5026244;28;20477;-78
2023/11/10 09:48:09;;;;;;;1.90;1.40;;;7.90;99.90;;;8.27;100.00;96652.53;5028218;28;20458;-77
2023/11/10 09:50:43;;;;;;;3.57;1.20;;;7.90;99.90;;;8.28;100.00;96648.97;5029533;28;20482;-77
2023/11/10 09:53:14;;;;;;;6.80;1.20;;;7.80;99.90;;;8.28;100.00;96640.31;5031232;28;20453;-77
2023/11/10 09:55:45;;;;;;;2.47;1.07;;;7.80;99.90;;;8.31;100.00;96637.34;5024913;28;20585;-79
2023/11/10 09:58:20;;;;;;;1.17;0.90;;;7.90;99.90;;;8.31;100.00;96639.94;5024563;28;20458;-78
2023/11/10 10:00:51;;;;;;;2.77;1.17;;;7.80;99.90;;;8.35;100.00;96639.31;5024896;28;20472;-77
2023/11/10 10:03:21;;;;;;;5.93;1.30;;;7.90;99.90;;;8.35;100.00;96634.13;5024687;28;20967;-77
2023/11/10 10:05:52;;;;;;;2.93;1.77;;;7.90;99.90;;;8.38;100.00;96627.69;5025019;28;21179;-78
2023/11/10 10:08:21;;;;;;;4.13;1.17;;;8.00;99.90;;;8.43;100.00;96631.28;5024192;28;20478;-78
2023/11/10 10:10:51;;;;;;;9.57;1.17;;;8.00;99.90;;;8.45;100.00;96623.25;5024680;28;20501;-79
2023/11/10 10:13:22;;;;;;;1.57;1.20;;;8.00;99.90;;;8.49;100.00;96620.03;5027447;28;20539;-76
2023/11/10 10:15:52;;;;;;;3.17;1.90;;;8.00;99.90;;;8.57;100.00;96619.75;5023062;28;20899;-78
2023/11/10 10:18:24;;;;;;;3.20;1.10;;;8.00;99.90;;;8.56;100.00;96612.97;5025229;28;20470;-79
2023/11/10 10:21:00;;;;;;;1.90;1.20;;;8.00;99.90;;;8.60;100.00;96605.53;5026309;28;20548;-78
2023/11/10 10:23:31;;;;;;;9.20;1.50;;;8.10;99.90;;;8.56;100.00;96612.16;5026682;28;20507;-80
2023/11/10 10:26:06;;;;;;;3.27;1.00;;;8.20;99.90;;;8.53;100.00;96605.56;5028920;28;20989;-79
2023/11/10 10:28:40;;;;;;;3.80;1.10;;;8.20;99.90;;;8.54;100.00;96601.94;5027280;28;20461;-79
2023/11/10 10:31:11;;;;;;;11.57;1.13;;;8.20;99.90;;;8.62;100.00;96595.69;5027307;28;20909;-78
2023/11/10 10:33:42;;;;;;;3.40;1.40;;;8.20;99.90;;;8.61;100.00;96590.69;5030072;28;20608;-78
2023/11/10 10:36:13;;;;;;;1.67;1.40;;;8.10;99.90;;;8.63;100.00;96588.66;5029489;28;20468;-78
2023/11/10 10:38:47;;;;;;;9.37;1.73;;;8.20;99.90;;;8.65;100.00;96591.84;5027523;28;20468;-79